Time;durP1;ratioP1;P1;durP2;ratioP2;P2;SDS_P1;SDS_P2;PMS_P1;PMS_P2;Temp;Humidity;BMP_temperature;BMP_pressure;BME280_temperature;BME280_humidity;BME280_pressure;Samples;Min_cycle;Max_cycle;Signal;HPM_P1;HPM_P2
2022/05/10 00:00:58;;;;;;;8.43;5.43;;;;;;;15.05;81.67;101995.59;5070468;28;20402;-71
2022/05/10 00:03:30;;;;;;;15.55;5.43;;;;;;;15.05;83.23;101990.28;5071423;28;20016;-71
2022/05/10 00:05:56;;;;;;;13.23;5.68;;;;;;;14.96;84.28;101987.47;5071128;28;20544;-71
2022/05/10 00:08:21;;;;;;;9.38;5.35;;;;;;;14.92;83.28;101985.66;5068773;28;20123;-71
2022/05/10 00:10:46;;;;;;;15.50;5.60;;;;;;;14.96;84.22;101976.88;5072287;28;20463;-72
2022/05/10 00:13:13;;;;;;;17.70;5.88;;;;;;;14.97;83.91;101970.72;5069942;28;20029;-72
2022/05/10 00:15:40;;;;;;;16.15;6.05;;;;;;;14.98;83.78;101968.09;5071245;28;20028;-72
2022/05/10 00:18:06;;;;;;;16.13;6.65;;;;;;;15.01;82.26;101969.91;5070508;28;20085;-72
2022/05/10 00:20:31;;;;;;;18.00;7.38;;;;;;;15.02;81.65;101963.75;5068840;28;20111;-72
2022/05/10 00:22:56;;;;;;;15.35;6.43;;;;;;;15.07;81.59;101962.06;5071959;28;20072;-72
2022/05/10 00:25:29;;;;;;;10.85;5.80;;;;;;;15.07;81.81;101970.00;5071971;28;20033;-73
2022/05/10 00:27:55;;;;;;;14.18;6.55;;;;;;;15.13;81.96;101967.44;5079918;28;20024;-72
2022/05/10 00:30:21;;;;;;;16.88;6.78;;;;;;;15.12;81.72;101965.66;5069515;28;20537;-72
2022/05/10 00:32:47;;;;;;;15.20;5.93;;;;;;;15.20;82.85;101967.56;5071722;28;20131;-72
2022/05/10 00:35:17;;;;;;;16.38;7.13;;;;;;;15.18;82.17;101955.16;5070927;28;20100;-71
2022/05/10 00:37:48;;;;;;;17.10;7.00;;;;;;;15.24;80.60;101948.16;5070098;28;20048;-72
2022/05/10 00:40:16;;;;;;;16.42;7.00;;;;;;;15.25;80.78;101952.59;5067384;28;20093;-71
2022/05/10 00:42:52;;;;;;;13.30;6.85;;;;;;;15.24;80.91;101942.88;5071736;28;20029;-71
2022/05/10 00:45:24;;;;;;;14.75;5.95;;;;;;;15.28;80.22;101939.38;5073673;28;20542;-71
2022/05/10 00:48:02;;;;;;;14.93;6.53;;;;;;;15.32;80.53;101943.88;5073793;28;20384;-71
2022/05/10 00:50:34;;;;;;;18.08;6.28;;;;;;;15.33;78.90;101941.22;5075118;28;20028;-71
2022/05/10 00:53:08;;;;;;;13.25;6.10;;;;;;;15.34;78.33;101944.75;5073983;28;20021;-72
2022/05/10 00:56:06;;;;;;;16.20;6.32;;;;;;;15.40;79.68;101933.38;5075784;28;20472;-72
2022/05/10 00:58:37;;;;;;;13.77;6.32;;;;;;;15.46;78.11;101933.44;5073169;28;20051;-72
2022/05/10 01:01:03;;;;;;;15.55;6.65;;;;;;;15.46;77.23;101923.75;5075010;28;20036;-70
2022/05/10 01:03:33;;;;;;;15.93;7.10;;;;;;;15.47;77.20;101920.19;5074827;28;21296;-71
2022/05/10 01:06:10;;;;;;;13.70;5.95;;;;;;;15.50;77.44;101912.31;5074038;28;20448;-73
2022/05/10 01:08:51;;;;;;;12.80;6.80;;;;;;;15.50;77.21;101914.97;5074961;28;20499;-71
2022/05/10 01:11:28;;;;;;;16.23;6.03;;;;;;;15.49;76.52;101913.16;5070701;28;20086;-71
2022/05/10 01:14:01;;;;;;;13.88;6.05;;;;;;;15.46;76.44;101909.56;5068835;28;20551;-72
2022/05/10 01:16:26;;;;;;;13.50;6.40;;;;;;;15.46;76.12;101902.53;5072401;28;20054;-72
2022/05/10 01:18:53;;;;;;;17.15;6.60;;;;;;;15.48;76.65;101906.06;5072947;28;20547;-72
2022/05/10 01:21:30;;;;;;;17.83;6.20;;;;;;;15.54;75.66;101899.06;5082778;28;20071;-70
2022/05/10 01:24:07;;;;;;;17.40;6.40;;;;;;;15.47;75.91;101893.69;5075191;28;20044;-72
2022/05/10 01:26:51;;;;;;;10.73;5.35;;;;;;;15.49;75.37;101896.34;5071995;28;20036;-72
2022/05/10 01:29:32;;;;;;;17.10;6.68;;;;;;;15.49;75.59;101881.34;5075191;28;20024;-71
2022/05/10 01:34:50;;;;;;;13.30;6.22;;;;;;;15.51;75.06;101876.91;5071714;28;20116;-72
2022/05/10 01:37:22;;;;;;;17.98;6.75;;;;;;;15.53;75.57;101882.25;5074752;28;20111;-72
2022/05/10 01:39:55;;;;;;;10.55;5.72;;;;;;;15.49;75.12;101878.69;5073757;28;20028;-71
2022/05/10 01:42:37;;;;;;;10.05;5.22;;;;;;;15.45;74.91;101863.59;5069482;28;20036;-71
2022/05/10 01:45:05;;;;;;;17.77;7.22;;;;;;;15.51;75.27;101862.78;5072274;28;20412;-72
2022/05/10 01:47:39;;;;;;;16.20;6.43;;;;;;;15.51;74.89;101858.34;5074748;28;20060;-72
2022/05/10 01:50:14;;;;;;;;;;;;;;;15.55;74.94;101850.47;5074890;28;20452;-72
2022/05/10 01:52:50;;;;;;;11.38;6.80;;;;;;;15.58;74.75;101843.41;5069793;28;20513;-70
2022/05/10 01:55:26;;;;;;;12.50;6.22;;;;;;;15.62;75.16;101847.00;5072859;28;20145;-71
2022/05/10 01:57:54;;;;;;;13.98;6.43;;;;;;;15.63;75.61;101851.44;5071516;28;20163;-71
2022/05/10 02:00:24;;;;;;;12.20;5.60;;;;;;;15.63;75.12;101846.13;5071692;28;20468;-72
2022/05/10 02:03:00;;;;;;;12.68;5.47;;;;;;;15.61;74.45;101840.81;5070619;28;20025;-71
2022/05/10 02:05:34;;;;;;;11.30;6.10;;;;;;;15.64;74.53;101842.59;5062396;28;20050;-72
2022/05/10 02:08:10;;;;;;;11.30;5.63;;;;;;;15.60;74.28;101833.72;5072879;28;20476;-72
2022/05/10 02:10:40;;;;;;;15.60;6.40;;;;;;;15.58;74.70;101835.44;5069340;28;20132;-72
2022/05/10 02:13:25;;;;;;;12.73;6.95;;;;;;;15.62;74.73;101831.06;5071105;28;20045;-71
2022/05/10 02:15:53;;;;;;;10.80;5.88;;;;;;;15.62;74.22;101829.31;5070846;28;20388;-71
2022/05/10 02:18:30;;;;;;;17.67;6.35;;;;;;;15.65;74.90;101825.78;5071349;28;20131;-72
2022/05/10 02:21:02;;;;;;;18.25;6.05;;;;;;;15.67;74.72;101826.72;5055325;28;20116;-71
2022/05/10 02:23:35;;;;;;;15.18;6.32;;;;;;;15.68;74.42;101823.16;5070620;28;20044;-72
2022/05/10 02:26:08;;;;;;;14.88;6.53;;;;;;;15.67;74.60;101814.34;5071407;28;20475;-71
2022/05/10 02:28:55;;;;;;;14.65;6.90;;;;;;;15.72;74.82;101818.78;5067930;28;20029;-72
2022/05/10 02:31:30;;;;;;;14.02;6.25;;;;;;;15.72;74.85;101813.50;5072598;28;20043;-72
2022/05/10 02:33:57;;;;;;;14.13;6.05;;;;;;;15.72;75.31;101813.50;5072196;28;20059;-72
2022/05/10 02:36:23;;;;;;;13.15;6.50;;;;;;;15.73;75.32;101807.31;5072671;28;20028;-71
2022/05/10 02:38:48;;;;;;;18.42;6.18;;;;;;;15.72;75.06;101808.19;5070205;28;20177;-71
2022/05/10 02:41:22;;;;;;;13.32;6.80;;;;;;;15.71;75.13;101807.31;5072845;28;20032;-72
2022/05/10 02:43:47;;;;;;;14.50;7.35;;;;;;;15.71;75.28;101809.06;5073249;28;20041;-71
2022/05/10 02:46:12;;;;;;;18.63;7.07;;;;;;;15.72;75.56;101803.78;5073709;28;20028;-72
2022/05/10 02:48:38;;;;;;;13.40;6.88;;;;;;;15.71;75.62;101794.03;5072956;28;20158;-72
2022/05/10 02:51:05;;;;;;;14.52;6.93;;;;;;;15.75;75.30;101794.94;5073369;28;20301;-72
2022/05/10 02:53:30;;;;;;;16.67;7.22;;;;;;;15.75;75.21;101795.84;5069589;28;20025;-72
2022/05/10 02:55:58;;;;;;;11.35;6.55;;;;;;;15.75;74.86;101798.50;5073360;28;20024;-72
2022/05/10 02:58:40;;;;;;;15.07;6.70;;;;;;;15.78;75.26;101795.88;5063066;28;20032;-71
2022/05/10 03:01:20;;;;;;;16.25;6.97;;;;;;;15.77;75.00;101791.44;5070003;28;20404;-72
2022/05/10 03:03:46;;;;;;;15.70;6.80;;;;;;;15.79;74.85;101788.78;5071121;28;20035;-71
2022/05/10 03:06:22;;;;;;;12.07;5.97;;;;;;;15.81;74.74;101785.31;5069931;28;20017;-72
2022/05/10 03:08:49;;;;;;;15.40;6.53;;;;;;;15.85;74.49;101778.28;5069235;28;20025;-72
2022/05/10 03:11:14;;;;;;;11.77;6.32;;;;;;;15.88;73.73;101772.13;5072914;28;20492;-71
2022/05/10 03:13:40;;;;;;;11.95;6.57;;;;;;;15.90;73.88;101773.00;5073349;28;20035;-73
2022/05/10 03:16:05;;;;;;;18.27;6.63;;;;;;;15.93;73.74;101775.72;5070199;28;20422;-72
2022/05/10 03:18:31;;;;;;;14.50;5.97;;;;;;;15.91;73.64;101772.13;5071170;28;20035;-72
2022/05/10 03:20:56;;;;;;;12.88;6.30;;;;;;;15.91;73.86;101777.44;5072180;28;20020;-72
2022/05/10 03:23:22;;;;;;;13.50;6.07;;;;;;;15.88;73.59;101765.03;5071183;28;20045;-72
2022/05/10 03:25:48;;;;;;;10.88;6.05;;;;;;;15.91;73.63;101761.53;5071744;28;20036;-71
2022/05/10 03:28:14;;;;;;;22.08;7.43;;;;;;;15.90;73.41;101754.41;5072552;28;20025;-72
2022/05/10 03:30:39;;;;;;;11.32;6.10;;;;;;;15.94;73.60;101756.22;5072251;28;20035;-72
2022/05/10 03:33:05;;;;;;;12.30;6.85;;;;;;;15.90;74.25;101757.97;5071648;28;20028;-72
2022/05/10 03:35:30;;;;;;;14.52;6.95;;;;;;;15.89;74.10;101760.63;5070662;28;20055;-70
2022/05/10 03:37:56;;;;;;;19.35;6.97;;;;;;;15.91;73.80;101761.53;5071521;28;20119;-71
2022/05/10 03:40:21;;;;;;;15.75;7.60;;;;;;;15.90;73.98;101759.72;5071227;28;20028;-71
2022/05/10 03:42:52;;;;;;;16.15;7.53;;;;;;;15.92;74.22;101752.69;5071292;28;20025;-71
2022/05/10 03:45:20;;;;;;;12.73;6.45;;;;;;;15.95;73.68;101747.41;5071974;28;20100;-72
2022/05/10 03:47:46;;;;;;;13.57;7.03;;;;;;;15.97;73.91;101746.53;5070929;28;20048;-72
2022/05/10 03:50:13;;;;;;;14.55;7.32;;;;;;;15.93;74.28;101749.16;5070141;28;20031;-72
2022/05/10 03:52:40;;;;;;;17.38;7.60;;;;;;;15.95;74.29;101744.75;5072701;28;20028;-71
2022/05/10 03:55:12;;;;;;;15.02;7.28;;;;;;;15.93;74.41;101749.16;5067828;28;20093;-71
2022/05/10 03:57:37;;;;;;;14.20;7.00;;;;;;;15.88;74.85;101743.78;5071790;28;20017;-70
2022/05/10 04:00:07;;;;;;;16.02;8.07;;;;;;;15.87;74.95;101742.03;5069589;28;20059;-71
2022/05/10 04:02:32;;;;;;;15.40;6.97;;;;;;;15.87;74.75;101733.16;5069967;28;20044;-71
2022/05/10 04:04:57;;;;;;;13.23;6.63;;;;;;;15.89;74.63;101732.31;5072757;28;20520;-72
2022/05/10 04:07:23;;;;;;;16.73;6.95;;;;;;;15.89;74.57;101732.31;5071610;28;20017;-72
2022/05/10 04:09:48;;;;;;;14.55;7.18;;;;;;;15.94;74.63;101735.00;5070681;28;20082;-72
2022/05/10 04:12:14;;;;;;;12.38;7.82;;;;;;;15.96;74.73;101727.94;5071877;28;20028;-71
2022/05/10 04:14:39;;;;;;;18.00;8.15;;;;;;;15.96;74.85;101728.81;5071851;28;20029;-72
2022/05/10 04:17:04;;;;;;;16.58;7.35;;;;;;;15.95;75.22;101726.16;5072191;28;20041;-71
2022/05/10 04:19:30;;;;;;;18.33;8.00;;;;;;;15.94;75.46;101724.38;5073214;28;20433;-73
2022/05/10 04:21:55;;;;;;;25.83;8.55;;;;;;;15.95;75.43;101723.50;5075857;28;20024;-72
2022/05/10 04:24:20;;;;;;;15.82;7.97;;;;;;;16.02;75.18;101720.06;5076069;28;20049;-72
2022/05/10 04:26:48;;;;;;;14.00;7.85;;;;;;;16.01;75.53;101721.78;5074475;28;20025;-72
2022/05/10 04:29:13;;;;;;;22.38;8.73;;;;;;;16.05;75.41;101717.41;5075774;28;20071;-72
2022/05/10 04:31:38;;;;;;;19.05;8.15;;;;;;;16.04;75.20;101720.94;5075675;28;20582;-72
2022/05/10 04:34:04;;;;;;;23.38;8.40;;;;;;;16.02;75.31;101715.63;5073764;28;20028;-72
2022/05/10 04:36:29;;;;;;;16.83;7.95;;;;;;;16.08;75.09;101717.44;5074916;28;20028;-72
2022/05/10 04:38:55;;;;;;;15.02;8.20;;;;;;;16.13;74.91;101718.34;5073310;28;20051;-71
2022/05/10 04:41:29;;;;;;;16.30;7.63;;;;;;;16.16;74.81;101713.06;5074365;28;20495;-71
2022/05/10 04:43:58;;;;;;;15.82;7.65;;;;;;;16.21;74.67;101717.50;5074524;28;20428;-72
2022/05/10 04:46:24;;;;;;;18.02;8.50;;;;;;;16.22;74.47;101721.94;5073637;28;20028;-71
2022/05/10 04:48:50;;;;;;;14.15;7.75;;;;;;;16.23;75.05;101718.44;5075521;28;20032;-72
2022/05/10 04:51:15;;;;;;;18.75;8.43;;;;;;;16.23;75.01;101715.78;5090882;28;20028;-72
2022/05/10 04:53:41;;;;;;;17.92;8.13;;;;;;;16.27;74.81;101709.59;5074257;28;20032;-71
2022/05/10 04:56:06;;;;;;;20.67;8.45;;;;;;;16.29;74.01;101702.53;5074005;28;20111;-71
2022/05/10 04:58:33;;;;;;;18.00;8.55;;;;;;;16.28;74.62;101706.97;5074022;28;20039;-72
2022/05/10 05:01:02;;;;;;;18.50;8.23;;;;;;;16.28;74.77;101708.72;5074420;28;20090;-72
2022/05/10 05:03:28;;;;;;;18.48;9.38;;;;;;;16.31;74.41;101708.75;5073254;28;20428;-72
2022/05/10 05:05:53;;;;;;;23.08;9.07;;;;;;;16.38;73.95;101702.59;5075346;28;20108;-71
2022/05/10 05:08:18;;;;;;;15.07;7.93;;;;;;;16.38;74.45;101694.63;5074969;28;20117;-71
2022/05/10 05:10:44;;;;;;;16.42;8.38;;;;;;;16.43;74.05;101692.00;5074434;28;20035;-71
2022/05/10 05:13:09;;;;;;;17.98;8.50;;;;;;;16.47;73.59;101700.00;5074846;28;20032;-72
2022/05/10 05:15:34;;;;;;;18.58;8.73;;;;;;;16.46;73.85;101700.84;5071848;28;20364;-71
2022/05/10 05:18:03;;;;;;;22.70;9.52;;;;;;;16.54;73.57;101702.69;5072900;28;20120;-71
2022/05/10 05:20:29;;;;;;;18.52;9.30;;;;;;;16.53;73.89;101709.75;5072822;28;20059;-70
2022/05/10 05:22:55;;;;;;;20.48;8.32;;;;;;;16.58;74.04;101710.69;5073121;28;20477;-71
2022/05/10 05:25:20;;;;;;;24.20;9.57;;;;;;;16.61;73.55;101707.16;5073979;28;20199;-73
2022/05/10 05:27:45;;;;;;;22.30;8.75;;;;;;;16.70;72.92;101707.22;5071367;28;20021;-70
2022/05/10 05:30:11;;;;;;;19.65;9.07;;;;;;;16.77;72.43;101703.69;5072656;28;20024;-69
2022/05/10 05:32:36;;;;;;;18.10;8.60;;;;;;;16.83;72.09;101711.69;5072167;28;20040;-71
2022/05/10 05:35:03;;;;;;;21.80;9.40;;;;;;;16.89;71.86;101712.59;5073322;28;20024;-69
2022/05/10 05:37:34;;;;;;;20.08;9.15;;;;;;;16.93;71.84;101712.66;5074183;28;20379;-71
2022/05/10 05:40:12;;;;;;;25.98;9.73;;;;;;;17.00;71.82;101708.25;5071326;28;20028;-71
2022/05/10 05:42:37;;;;;;;22.52;8.63;;;;;;;17.02;71.25;101710.03;5072179;28;20095;-69
2022/05/10 05:45:05;;;;;;;21.10;9.35;;;;;;;17.06;70.95;101705.59;5071319;28;20028;-69
2022/05/10 05:47:31;;;;;;;16.92;8.43;;;;;;;17.14;70.41;101695.88;5066495;28;20464;-70
2022/05/10 05:49:57;;;;;;;19.60;10.23;;;;;;;17.20;70.37;101687.06;5071325;28;20078;-70
2022/05/10 05:52:22;;;;;;;21.23;11.00;;;;;;;17.26;69.89;101684.38;5071078;28;20458;-70
2022/05/10 05:54:52;;;;;;;21.00;9.90;;;;;;;17.29;70.17;101691.50;5072639;28;20384;-71
2022/05/10 05:57:18;;;;;;;22.58;9.65;;;;;;;17.34;69.53;101685.28;5072120;28;20024;-71
2022/05/10 05:59:44;;;;;;;24.10;9.80;;;;;;;17.41;69.66;101688.84;5072871;28;20031;-70
2022/05/10 06:02:16;;;;;;;27.83;9.52;;;;;;;17.47;69.11;101677.31;5069953;28;20036;-70
2022/05/10 06:04:42;;;;;;;25.70;10.87;;;;;;;17.48;69.46;101681.78;5069672;28;20024;-74
2022/05/10 06:07:09;;;;;;;30.55;9.52;;;;;;;17.56;68.80;101673.81;5073212;28;20027;-71
2022/05/10 06:09:38;;;;;;;19.27;9.05;;;;;;;17.59;69.08;101671.13;5077301;28;20089;-71
2022/05/10 06:12:05;;;;;;;17.40;8.68;;;;;;;17.57;68.71;101670.25;5071364;28;20020;-71
2022/05/10 06:14:32;;;;;;;22.33;9.73;;;;;;;17.60;69.82;101675.59;5071708;28;20457;-71
2022/05/10 06:16:57;;;;;;;19.75;9.05;;;;;;;17.69;69.18;101678.25;5073938;28;20016;-70
2022/05/10 06:19:24;;;;;;;18.70;8.23;;;;;;;17.72;68.63;101680.91;5070498;28;20032;-71
2022/05/10 06:21:50;;;;;;;18.77;9.60;;;;;;;17.77;67.98;101676.47;5071238;28;20440;-71
2022/05/10 06:24:16;;;;;;;21.20;8.55;;;;;;;17.81;68.94;101664.94;5071926;28;20488;-71
2022/05/10 06:26:41;;;;;;;17.77;9.27;;;;;;;17.87;67.97;101664.03;5069397;28;20023;-67
2022/05/10 06:29:07;;;;;;;20.27;8.25;;;;;;;17.96;67.86;101663.16;5069428;28;20039;-70
2022/05/10 06:31:32;;;;;;;20.55;9.07;;;;;;;17.99;68.53;101663.19;5071321;28;20032;-71
2022/05/10 06:33:58;;;;;;;19.92;9.15;;;;;;;18.03;68.41;101665.84;5070766;28;20378;-71
2022/05/10 06:36:23;;;;;;;19.50;8.15;;;;;;;18.07;67.46;101649.84;5070753;28;20039;-72
2022/05/10 06:38:48;;;;;;;20.67;8.25;;;;;;;18.12;67.78;101640.06;5071815;28;20122;-73
2022/05/10 06:41:14;;;;;;;18.55;7.80;;;;;;;18.20;66.97;101647.19;5072152;28;20119;-73
2022/05/10 06:43:39;;;;;;;20.50;8.38;;;;;;;18.25;66.25;101646.28;5069644;28;20024;-72
2022/05/10 06:46:13;;;;;;;18.88;7.53;;;;;;;18.28;66.96;101640.94;5072173;28;20498;-72
2022/05/10 06:48:39;;;;;;;18.42;7.05;;;;;;;18.40;65.90;101643.56;5072320;28;20086;-73
2022/05/10 06:51:09;;;;;;;12.65;6.38;;;;;;;18.49;65.77;101637.31;5071737;28;20028;-72
2022/05/10 06:53:35;;;;;;;18.20;7.03;;;;;;;18.60;64.93;101639.91;5070957;28;20077;-72
2022/05/10 06:56:01;;;;;;;16.40;6.40;;;;;;;18.69;63.55;101623.88;5069193;28;20024;-71
2022/05/10 06:58:26;;;;;;;22.50;7.55;;;;;;;18.73;63.83;101628.31;5071891;28;20040;-72
2022/05/10 07:00:52;;;;;;;13.73;6.43;;;;;;;18.78;62.97;101623.84;5070968;28;20024;-71
2022/05/10 07:03:31;;;;;;;13.45;6.30;;;;;;;18.81;63.36;101629.16;5069726;28;20102;-72
2022/05/10 07:05:58;;;;;;;15.25;7.00;;;;;;;18.84;63.39;101622.94;5071328;28;20012;-72
2022/05/10 07:08:24;;;;;;;15.63;6.70;;;;;;;18.87;64.00;101636.25;5067099;28;20039;-71
2022/05/10 07:10:49;;;;;;;18.45;6.68;;;;;;;18.94;63.19;101623.81;5069694;28;20460;-71
2022/05/10 07:13:17;;;;;;;13.63;6.07;;;;;;;18.95;63.34;101620.22;5073137;28;20043;-72
2022/05/10 07:15:44;;;;;;;15.88;6.38;;;;;;;18.99;63.48;101617.56;5070889;28;20020;-71
2022/05/10 07:18:10;;;;;;;15.73;6.30;;;;;;;19.04;63.33;101614.84;5070725;28;20029;-73
2022/05/10 07:20:35;;;;;;;15.20;6.63;;;;;;;19.12;62.77;101607.69;5072058;28;20032;-73
2022/05/10 07:23:00;;;;;;;12.20;6.25;;;;;;;19.10;63.21;101627.25;5070434;28;20045;-72
2022/05/10 07:25:28;;;;;;;16.33;7.07;;;;;;;19.12;63.16;101618.34;5070995;28;20073;-73
2022/05/10 07:27:54;;;;;;;13.65;6.32;;;;;;;19.15;62.77;101621.03;5070298;28;20384;-72
2022/05/10 07:30:20;;;;;;;15.98;6.60;;;;;;;19.17;63.53;101615.69;5071115;28;20020;-73
2022/05/10 07:32:46;;;;;;;13.77;7.20;;;;;;;19.21;63.17;101618.28;5071510;28;20036;-72
2022/05/10 07:35:12;;;;;;;19.92;6.18;;;;;;;19.26;63.41;101620.03;5071256;28;20028;-72
2022/05/10 07:37:38;;;;;;;12.27;5.97;;;;;;;19.39;63.45;101611.06;5071999;28;20075;-73
2022/05/10 07:40:04;;;;;;;13.10;5.88;;;;;;;19.54;63.08;101613.59;5069555;28;20505;-73
2022/05/10 07:42:30;;;;;;;19.33;6.60;;;;;;;19.64;63.42;101595.72;5070772;28;20028;-72
2022/05/10 07:44:55;;;;;;;8.13;5.57;;;;;;;19.76;62.36;101605.38;5072647;28;20538;-72
2022/05/10 07:47:21;;;;;;;12.52;6.45;;;;;;;19.78;62.74;101608.03;5072861;28;20120;-73
2022/05/10 07:49:46;;;;;;;12.52;6.07;;;;;;;19.83;62.68;101607.16;5071003;28;20028;-72
2022/05/10 07:52:14;;;;;;;8.35;5.65;;;;;;;19.92;62.17;101600.81;5071380;28;20030;-71
2022/05/10 07:54:39;;;;;;;9.45;5.30;;;;;;;20.00;62.44;101590.06;5070284;28;20035;-73
2022/05/10 07:57:05;;;;;;;13.02;5.82;;;;;;;20.12;62.20;101597.94;5072534;28;20028;-73
2022/05/10 07:59:31;;;;;;;10.85;5.15;;;;;;;20.24;61.52;101596.03;5069623;28;20063;-73
2022/05/10 08:01:57;;;;;;;14.15;5.53;;;;;;;20.32;60.72;101607.50;5070667;28;20445;-73
2022/05/10 08:04:22;;;;;;;9.50;4.72;;;;;;;20.37;59.83;101598.56;5070713;28;20133;-73
2022/05/10 08:06:48;;;;;;;10.50;4.35;;;;;;;20.44;59.86;101604.69;5070552;28;20092;-73
2022/05/10 08:09:14;;;;;;;10.80;4.18;;;;;;;20.61;60.76;101614.31;5070354;28;20469;-72
2022/05/10 08:11:40;;;;;;;10.10;4.30;;;;;;;20.66;59.29;101589.25;5068470;28;20024;-72
2022/05/10 08:14:05;;;;;;;10.40;3.97;;;;;;;20.75;59.67;101604.31;5070998;28;20039;-73
2022/05/10 08:16:32;;;;;;;9.63;3.95;;;;;;;20.82;59.23;101603.34;5070677;28;20093;-72
2022/05/10 08:18:58;;;;;;;16.42;3.90;;;;;;;20.91;59.18;101598.78;5072242;28;20054;-72
2022/05/10 08:21:24;;;;;;;6.38;3.50;;;;;;;20.93;57.76;101589.81;5070754;28;20041;-73
2022/05/10 08:23:52;;;;;;;7.80;3.70;;;;;;;20.95;58.34;101581.78;5071250;28;20059;-73
2022/05/10 08:26:20;;;;;;;9.55;4.53;;;;;;;21.01;57.25;101589.69;5070362;28;20029;-72
2022/05/10 08:28:45;;;;;;;8.15;3.80;;;;;;;21.10;58.46;101588.69;5072261;28;20048;-73
2022/05/10 08:31:10;;;;;;;12.02;3.90;;;;;;;21.16;57.17;101589.47;5072216;28;20074;-71
2022/05/10 08:33:38;;;;;;;8.50;3.70;;;;;;;21.11;57.81;101588.66;5070146;28;20025;-72
2022/05/10 08:36:04;;;;;;;15.15;4.10;;;;;;;21.19;56.53;101592.09;5071515;28;20056;-76
2022/05/10 08:38:30;;;;;;;17.85;5.05;;;;;;;21.22;57.08;101593.84;5071933;28;20020;-73
2022/05/10 08:41:17;;;;;;;9.23;3.75;;;;;;;21.09;56.16;101592.25;5068588;28;20027;-73
2022/05/10 08:43:59;;;;;;;8.82;4.13;;;;;;;20.97;57.84;101582.63;5069450;28;20052;-71
2022/05/10 08:46:32;;;;;;;10.98;3.72;;;;;;;21.06;57.12;101593.19;5063419;28;20410;-74
2022/05/10 08:49:06;;;;;;;10.55;3.92;;;;;;;21.29;56.58;101590.16;5071748;28;20488;-72
2022/05/10 08:51:31;;;;;;;8.43;4.55;;;;;;;21.43;57.03;101597.94;5071508;28;20021;-72
2022/05/10 08:53:57;;;;;;;6.85;3.80;;;;;;;21.35;57.38;101602.53;5070651;28;20040;-73
2022/05/10 08:56:28;;;;;;;8.65;3.85;;;;;;;21.32;57.84;101607.94;5071569;28;20464;-72
2022/05/10 08:59:24;;;;;;;9.13;3.85;;;;;;;21.22;57.89;101604.53;5070563;28;20027;-73
2022/05/10 09:01:58;;;;;;;14.88;4.25;;;;;;;21.06;58.38;101606.56;5064006;28;20044;-73
2022/05/10 09:04:29;;;;;;;12.90;4.20;;;;;;;21.09;58.92;101602.97;5086097;28;20370;-73
2022/05/10 09:07:05;;;;;;;12.40;4.15;;;;;;;21.11;58.43;101599.34;5074942;28;20024;-73
2022/05/10 09:09:47;;;;;;;13.93;4.50;;;;;;;21.10;59.13;101599.38;5071792;28;20025;-72
2022/05/10 09:12:25;;;;;;;7.13;4.20;;;;;;;21.08;59.06;101610.13;5062347;28;20036;-72
2022/05/10 09:15:02;;;;;;;9.10;4.05;;;;;;;21.04;59.30;101616.41;5075271;28;20033;-72
2022/05/10 09:17:30;;;;;;;12.85;4.85;;;;;;;20.91;59.68;101610.34;5074922;28;20673;-73
2022/05/10 09:19:55;;;;;;;9.93;4.88;;;;;;;20.98;58.75;101616.50;5070911;28;20111;-71
2022/05/10 09:22:38;;;;;;;11.35;5.35;;;;;;;20.88;60.33;101616.63;5073897;28;20167;-72
2022/05/10 09:25:29;;;;;;;12.82;4.72;;;;;;;20.91;60.11;101617.50;5073716;28;20048;-73
2022/05/10 09:27:55;;;;;;;13.45;5.60;;;;;;;20.77;60.57;101618.56;5073323;28;20040;-72
2022/05/10 09:30:32;;;;;;;13.82;4.57;;;;;;;20.80;61.12;101615.84;5073285;28;20091;-73
2022/05/10 09:36:06;;;;;;;11.38;4.97;;;;;;;20.96;60.90;101611.16;5074327;28;20066;-72
2022/05/10 09:38:33;;;;;;;11.43;4.72;;;;;;;21.14;61.75;101612.69;5073737;28;20033;-73
2022/05/10 09:40:58;;;;;;;10.52;4.38;;;;;;;21.28;60.72;101601.75;5069852;28;20475;-72
2022/05/10 09:43:32;;;;;;;9.60;4.38;;;;;;;21.33;60.83;101609.72;5072671;28;20076;-72
2022/05/10 09:46:05;;;;;;;9.73;4.80;;;;;;;21.40;59.23;101608.72;5071792;28;20150;-72
2022/05/10 09:48:30;;;;;;;10.02;4.30;;;;;;;21.53;59.52;101610.31;5074738;28;20097;-72
2022/05/10 09:50:56;;;;;;;9.30;4.68;;;;;;;21.55;58.91;101611.19;5071880;28;20040;-72
2022/05/10 09:53:25;;;;;;;10.57;5.07;;;;;;;21.71;57.07;101606.41;5073728;28;20025;-72
2022/05/10 09:56:02;;;;;;;13.55;5.05;;;;;;;22.00;56.35;101609.47;5073670;28;20373;-72
2022/05/10 09:58:36;;;;;;;9.95;4.78;;;;;;;21.90;55.54;101593.56;5074585;28;20433;-73
2022/05/10 10:01:05;;;;;;;11.20;4.97;;;;;;;21.75;56.92;101606.38;5072590;28;20132;-72
2022/05/10 10:03:38;;;;;;;8.07;5.07;;;;;;;21.73;56.30;101618.00;5073270;28;20056;-72
2022/05/10 10:06:30;;;;;;;6.85;4.65;;;;;;;21.49;58.01;101629.13;5074095;28;20047;-73
2022/05/10 10:08:57;;;;;;;13.55;4.57;;;;;;;21.24;59.76;101613.41;5067337;28;20045;-72
2022/05/10 10:11:23;;;;;;;13.43;5.28;;;;;;;21.26;59.71;101622.31;5068034;28;20107;-72
2022/05/10 10:14:04;;;;;;;9.73;5.05;;;;;;;21.15;58.67;101627.84;5071885;28;20139;-72
2022/05/10 10:16:51;;;;;;;11.45;4.75;;;;;;;21.18;59.05;101618.88;5052507;28;20060;-73
2022/05/10 10:19:25;;;;;;;11.73;4.55;;;;;;;21.10;57.56;101618.13;5072762;28;20023;-72
2022/05/10 10:22:01;;;;;;;11.30;4.50;;;;;;;21.11;57.74;101623.44;5074143;28;20388;-70
2022/05/10 10:24:49;;;;;;;14.25;4.25;;;;;;;21.11;57.12;101620.75;5074130;28;20132;-74
2022/05/10 10:27:25;;;;;;;10.50;4.43;;;;;;;21.11;56.88;101618.09;5073218;28;20396;-74
2022/05/10 10:29:55;;;;;;;13.07;4.25;;;;;;;21.32;56.62;101615.97;5070372;28;20013;-75
2022/05/10 10:32:28;;;;;;;13.57;4.30;;;;;;;21.29;56.26;101610.69;5074264;28;20029;-75
2022/05/10 10:35:13;;;;;;;11.20;4.70;;;;;;;21.21;56.91;101619.69;5074100;28;20035;-74
2022/05/10 10:37:56;;;;;;;8.70;4.45;;;;;;;21.22;57.00;101610.78;5062592;28;20036;-74
2022/05/10 10:40:27;;;;;;;;;;;;;;;21.11;56.96;101620.75;5086990;28;20028;-74
2022/05/10 10:43:19;;;;;;;8.93;3.92;;;;;;;21.22;55.93;101618.78;5073550;28;20428;-73
2022/05/10 10:45:47;;;;;;;11.98;4.70;;;;;;;21.44;55.50;101621.13;5073957;28;20032;-74
2022/05/10 10:48:34;;;;;;;9.10;3.92;;;;;;;21.53;55.78;101614.78;5071840;28;20019;-76
2022/05/10 10:51:00;;;;;;;11.18;3.67;;;;;;;21.63;54.45;101626.22;5073858;28;20068;-76
2022/05/10 10:53:27;;;;;;;10.35;4.00;;;;;;;21.51;55.24;101616.56;5073667;28;20103;-75
2022/05/10 10:56:06;;;;;;;7.38;3.45;;;;;;;21.76;55.23;101601.00;5073401;28;20027;-75
2022/05/10 10:59:05;;;;;;;8.35;3.70;;;;;;;21.87;53.23;101612.41;5061892;28;20472;-75
2022/05/10 11:01:51;;;;;;;4.85;2.85;;;;;;;21.63;53.37;101604.81;5073360;28;20113;-75
2022/05/10 11:04:37;;;;;;;8.10;3.15;;;;;;;21.80;52.85;101600.03;5073594;28;20109;-75
2022/05/10 11:07:24;;;;;;;4.72;3.08;;;;;;;21.72;52.00;101605.50;5072442;28;20104;-75
2022/05/10 11:09:49;;;;;;;5.75;2.88;;;;;;;21.61;51.72;101596.78;5069247;28;20111;-74
2022/05/10 11:12:40;;;;;;;9.50;3.25;;;;;;;21.76;51.61;101595.63;5073141;28;20060;-74
2022/05/10 11:15:23;;;;;;;8.13;3.08;;;;;;;21.81;52.35;101623.25;5064322;28;21298;-75
2022/05/10 11:18:20;;;;;;;12.07;4.50;;;;;;;21.61;52.89;101604.84;5072131;28;20024;-74
2022/05/10 11:21:07;;;;;;;7.95;3.53;;;;;;;21.44;53.93;101601.53;5067324;28;20275;-75
2022/05/10 11:23:51;;;;;;;7.68;4.13;;;;;;;21.53;53.22;101598.72;5063327;28;20049;-75
2022/05/10 11:26:32;;;;;;;6.88;3.58;;;;;;;21.49;53.16;101600.53;5069060;28;20054;-74
2022/05/10 11:29:05;;;;;;;8.48;3.72;;;;;;;21.45;53.03;101595.25;5070607;28;20107;-74
2022/05/10 11:32:15;;;;;;;12.90;4.00;;;;;;;21.79;54.93;101606.28;5087404;28;20035;-75
2022/05/10 11:35:19;;;;;;;7.00;2.80;;;;;;;21.82;51.11;101600.88;5070250;28;20044;-74
2022/05/10 11:37:47;;;;;;;10.65;2.88;;;;;;;21.90;48.88;101596.25;5068273;28;20028;-76
2022/05/10 11:40:31;;;;;;;10.68;2.70;;;;;;;22.06;50.82;101593.28;5072660;28;20482;-75